Time;durP1;ratioP1;P1;durP2;ratioP2;P2;SDS_P1;SDS_P2;PMS_P1;PMS_P2;Temp;Humidity;BMP_temperature;BMP_pressure;BME280_temperature;BME280_humidity;BME280_pressure;Samples;Min_cycle;Max_cycle;Signal;HPM_P1;HPM_P2
2021/10/26 00:02:11;;;;;;;10.93;8.45;;;22.80;48.00;;;;;;1858981;77;21586;-34
2021/10/26 00:04:39;;;;;;;14.98;8.43;;;22.80;48.00;;;;;;1858971;77;21462;-33
2021/10/26 00:07:07;;;;;;;14.15;8.18;;;22.80;48.00;;;;;;1839878;77;21090;-33
2021/10/26 00:09:35;;;;;;;11.75;8.33;;;22.80;47.90;;;;;;1858796;77;21572;-33
2021/10/26 00:12:04;;;;;;;9.10;7.62;;;22.80;48.00;;;;;;1858963;76;21522;-34
2021/10/26 00:14:31;;;;;;;11.60;8.65;;;22.80;48.00;;;;;;1858885;77;21052;-33
2021/10/26 00:16:59;;;;;;;9.85;8.35;;;22.80;48.10;;;;;;1859002;77;21064;-33
2021/10/26 00:19:26;;;;;;;12.37;8.23;;;22.80;48.00;;;;;;1859059;77;21112;-33
2021/10/26 00:21:54;;;;;;;13.50;8.28;;;22.80;48.00;;;;;;1859014;77;21505;-33
2021/10/26 00:24:21;;;;;;;11.88;8.28;;;22.80;47.90;;;;;;1858914;77;21452;-33
2021/10/26 00:26:52;;;;;;;13.13;9.20;;;22.80;48.00;;;;;;1858848;77;21071;-33
2021/10/26 00:29:19;;;;;;;10.35;8.63;;;22.80;48.00;;;;;;1858876;77;21126;-34
2021/10/26 00:31:47;;;;;;;13.68;7.97;;;22.80;48.00;;;;;;1858823;77;21101;-33
2021/10/26 00:34:14;;;;;;;19.32;9.95;;;22.80;48.00;;;;;;1858905;76;21076;-33
2021/10/26 00:36:41;;;;;;;15.00;9.85;;;22.80;48.00;;;;;;1858858;76;21076;-33
2021/10/26 00:39:09;;;;;;;12.43;8.58;;;22.80;48.00;;;;;;1858908;77;21068;-33
2021/10/26 00:41:36;;;;;;;12.85;9.20;;;22.80;48.00;;;;;;1858969;77;21104;-33
2021/10/26 00:44:04;;;;;;;14.63;8.75;;;22.80;48.00;;;;;;1858928;76;21041;-34
2021/10/26 00:46:33;;;;;;;12.35;8.60;;;22.80;48.10;;;;;;1858904;77;21072;-36
2021/10/26 00:49:01;;;;;;;10.45;8.20;;;22.80;48.60;;;;;;1858857;77;21068;-35
2021/10/26 00:51:29;;;;;;;10.63;8.53;;;22.80;48.00;;;;;;1858858;77;21130;-34
2021/10/26 00:54:00;;;;;;;12.03;8.55;;;22.90;48.10;;;;;;1858922;77;21620;-34
2021/10/26 00:56:27;;;;;;;12.90;8.23;;;22.90;47.90;;;;;;1858913;77;21481;-34
2021/10/26 00:58:55;;;;;;;13.93;8.15;;;22.90;47.90;;;;;;1858957;77;21489;-34
2021/10/26 01:01:23;;;;;;;12.50;8.43;;;22.80;47.90;;;;;;1858997;77;21068;-33
2021/10/26 01:03:50;;;;;;;14.55;8.48;;;22.80;47.80;;;;;;1858870;76;21149;-33
2021/10/26 01:06:19;;;;;;;12.20;7.67;;;22.90;47.90;;;;;;1858908;77;21137;-33
2021/10/26 01:08:48;;;;;;;13.83;8.70;;;22.90;48.30;;;;;;1858964;76;21690;-34
2021/10/26 01:11:16;;;;;;;15.93;10.58;;;22.80;47.70;;;;;;1858828;76;21557;-34
2021/10/26 01:13:45;;;;;;;14.00;10.50;;;22.80;47.80;;;;;;1858904;77;21049;-34
2021/10/26 01:16:13;;;;;;;11.45;8.25;;;22.80;47.90;;;;;;1858918;77;21122;-34
2021/10/26 01:18:40;;;;;;;15.88;9.50;;;22.80;48.00;;;;;;1858833;77;21130;-33
2021/10/26 01:21:08;;;;;;;10.30;8.90;;;22.80;48.00;;;;;;1858888;77;21067;-33
2021/10/26 01:23:35;;;;;;;10.48;9.10;;;22.80;48.00;;;;;;1858961;77;21497;-34
2021/10/26 01:26:03;;;;;;;11.97;8.55;;;22.80;48.00;;;;;;1858934;77;21525;-34
2021/10/26 01:28:30;;;;;;;14.75;9.05;;;22.80;47.90;;;;;;1858847;77;21126;-34
2021/10/26 01:30:58;;;;;;;12.35;8.15;;;22.80;48.00;;;;;;1858767;76;21537;-33
2021/10/26 01:33:26;;;;;;;13.53;8.28;;;22.80;47.90;;;;;;1858911;77;21083;-34
2021/10/26 01:35:54;;;;;;;11.97;8.18;;;22.80;47.90;;;;;;1858970;77;21071;-34
2021/10/26 01:38:25;;;;;;;11.48;8.30;;;22.80;47.90;;;;;;1858866;77;21009;-34
2021/10/26 01:40:53;;;;;;;13.53;8.85;;;22.80;47.80;;;;;;1859009;77;21130;-33
2021/10/26 01:43:21;;;;;;;11.45;8.75;;;22.80;47.90;;;;;;1858865;77;21044;-33
2021/10/26 01:45:49;;;;;;;12.50;8.38;;;22.80;47.80;;;;;;1858828;76;21093;-34
2021/10/26 01:48:16;;;;;;;15.43;8.15;;;22.80;47.80;;;;;;1859058;77;21161;-34
2021/10/26 01:50:44;;;;;;;12.28;8.03;;;22.90;47.90;;;;;;1858927;77;21462;-34
2021/10/26 01:53:12;;;;;;;11.73;8.68;;;22.90;47.80;;;;;;1859009;77;21529;-34
2021/10/26 01:55:40;;;;;;;11.22;8.13;;;22.90;47.80;;;;;;1858964;77;21550;-33
2021/10/26 01:58:09;;;;;;;12.80;7.45;;;22.90;47.70;;;;;;1858888;77;21074;-33
2021/10/26 02:00:37;;;;;;;10.85;7.70;;;22.90;47.70;;;;;;1858949;77;21553;-34
2021/10/26 02:03:05;;;;;;;13.22;7.83;;;22.90;47.70;;;;;;1858925;77;21072;-33
2021/10/26 02:05:33;;;;;;;13.08;8.58;;;22.90;47.70;;;;;;1858914;77;21084;-34
2021/10/26 02:08:01;;;;;;;10.90;7.47;;;22.90;47.70;;;;;;1858911;76;21148;-33
2021/10/26 02:10:30;;;;;;;12.90;8.03;;;22.90;47.70;;;;;;1858743;77;21084;-33
2021/10/26 02:12:59;;;;;;;14.43;7.95;;;23.00;47.70;;;;;;1858843;77;21088;-34
2021/10/26 02:15:27;;;;;;;14.53;8.30;;;22.90;47.80;;;;;;1858938;77;21707;-34
2021/10/26 02:17:54;;;;;;;12.63;7.33;;;22.90;47.70;;;;;;1859047;77;21064;-34
2021/10/26 02:20:22;;;;;;;11.00;7.30;;;22.90;47.70;;;;;;1858877;77;21061;-34
2021/10/26 02:22:49;;;;;;;11.33;8.20;;;22.90;47.70;;;;;;1858839;77;21040;-35
2021/10/26 02:25:17;;;;;;;11.75;7.08;;;22.90;47.80;;;;;;1858918;77;21572;-35
2021/10/26 02:27:44;;;;;;;9.28;7.40;;;22.90;47.90;;;;;;1858918;77;21560;-35
2021/10/26 02:30:12;;;;;;;10.70;7.80;;;22.90;48.00;;;;;;1858806;77;21048;-35
2021/10/26 02:32:40;;;;;;;13.15;7.42;;;22.90;48.00;;;;;;1859012;77;21595;-34
2021/10/26 02:35:08;;;;;;;10.08;7.42;;;22.90;48.10;;;;;;1858876;77;21072;-34
2021/10/26 02:37:35;;;;;;;9.90;7.40;;;22.90;47.90;;;;;;1858883;76;21049;-34
2021/10/26 02:40:04;;;;;;;11.10;7.17;;;22.90;48.00;;;;;;1858891;76;21048;-35
2021/10/26 02:42:31;;;;;;;11.68;7.53;;;22.90;47.90;;;;;;1858923;77;21139;-35
2021/10/26 02:45:00;;;;;;;12.98;7.33;;;22.90;48.00;;;;;;1859012;77;21581;-35
2021/10/26 02:47:27;;;;;;;11.60;7.20;;;22.90;48.00;;;;;;1858823;77;21591;-34
2021/10/26 02:49:55;;;;;;;10.55;7.15;;;22.90;47.90;;;;;;1858828;77;21525;-35
2021/10/26 02:52:22;;;;;;;11.73;7.20;;;22.90;47.90;;;;;;1858861;77;21494;-35
2021/10/26 02:54:50;;;;;;;12.15;7.92;;;22.90;47.90;;;;;;1858854;77;21113;-34
2021/10/26 02:57:17;;;;;;;9.50;6.95;;;22.90;47.90;;;;;;1858902;76;21123;-35
2021/10/26 02:59:45;;;;;;;11.97;7.58;;;22.90;47.90;;;;;;1859025;76;21510;-36
2021/10/26 03:02:12;;;;;;;12.03;7.60;;;22.90;47.90;;;;;;1858943;77;21052;-34
2021/10/26 03:04:40;;;;;;;11.83;7.45;;;22.90;47.90;;;;;;1858944;77;21571;-35
2021/10/26 03:07:07;;;;;;;9.73;6.75;;;22.90;47.80;;;;;;1858918;77;21158;-35
2021/10/26 03:09:34;;;;;;;12.33;7.30;;;22.90;47.90;;;;;;1859009;76;21624;-35
2021/10/26 03:12:02;;;;;;;11.35;7.22;;;22.90;47.80;;;;;;1858899;76;21096;-36
2021/10/26 03:14:30;;;;;;;15.15;7.50;;;22.90;47.80;;;;;;1859010;77;21108;-36
2021/10/26 03:16:57;;;;;;;10.00;6.75;;;22.90;47.80;;;;;;1858995;76;21561;-34
2021/10/26 03:19:25;;;;;;;11.40;7.17;;;22.90;47.80;;;;;;1858963;77;21109;-34
2021/10/26 03:21:52;;;;;;;8.73;6.05;;;22.90;47.90;;;;;;1859198;77;21134;-35
2021/10/26 03:24:20;;;;;;;11.15;8.48;;;22.90;47.90;;;;;;1858970;76;21186;-35
2021/10/26 03:26:47;;;;;;;11.20;9.23;;;22.90;47.80;;;;;;1858899;77;21095;-36
2021/10/26 03:29:15;;;;;;;13.48;8.45;;;22.90;47.80;;;;;;1858957;76;21059;-35
2021/10/26 03:31:43;;;;;;;11.50;8.40;;;22.90;47.90;;;;;;1859005;77;21532;-35
2021/10/26 03:34:10;;;;;;;12.50;8.05;;;22.80;48.00;;;;;;1858885;77;21101;-35
2021/10/26 03:36:38;;;;;;;11.75;7.85;;;22.80;48.00;;;;;;1858855;77;21109;-34
2021/10/26 03:39:06;;;;;;;11.55;7.12;;;22.80;48.00;;;;;;1859152;76;21558;-35
2021/10/26 03:41:34;;;;;;;11.43;7.33;;;22.90;48.10;;;;;;1859032;77;21501;-34
2021/10/26 03:44:01;;;;;;;9.73;7.00;;;22.90;48.10;;;;;;1858885;77;21510;-34
2021/10/26 03:46:29;;;;;;;9.80;7.42;;;22.90;48.10;;;;;;1858976;77;21528;-34
2021/10/26 03:48:56;;;;;;;14.30;7.78;;;22.80;48.00;;;;;;1858849;77;21513;-35
2021/10/26 03:51:24;;;;;;;11.22;6.87;;;22.80;48.00;;;;;;1858935;77;21529;-34
2021/10/26 03:53:51;;;;;;;16.35;7.42;;;22.80;47.90;;;;;;1858965;77;21475;-35
2021/10/26 03:56:19;;;;;;;12.37;7.55;;;22.90;48.00;;;;;;1858882;77;21025;-35
2021/10/26 03:58:46;;;;;;;9.85;7.00;;;22.90;47.90;;;;;;1858781;76;21615;-35
2021/10/26 04:01:15;;;;;;;9.68;7.28;;;22.90;47.90;;;;;;1858846;77;21627;-35
2021/10/26 04:03:42;;;;;;;13.60;7.97;;;22.90;47.90;;;;;;1858722;76;21065;-35
2021/10/26 04:06:14;;;;;;;7.67;6.72;;;22.90;47.80;;;;;;1858901;77;21498;-35
2021/10/26 04:08:52;;;;;;;13.22;6.97;;;22.80;47.80;;;;;;1858320;77;21159;-35
2021/10/26 04:13:43;;;;;;;15.20;7.60;;;22.80;47.80;;;;;;1858900;77;21151;-35
2021/10/26 04:16:10;;;;;;;11.57;7.80;;;22.80;47.90;;;;;;1858726;77;21053;-35
2021/10/26 04:18:38;;;;;;;14.47;8.60;;;22.80;47.80;;;;;;1858877;77;21158;-35
2021/10/26 04:21:06;;;;;;;12.65;7.67;;;22.80;47.80;;;;;;1858891;77;21041;-35
2021/10/26 04:23:35;;;;;;;12.30;7.87;;;22.80;47.80;;;;;;1858943;77;21537;-35
2021/10/26 04:26:04;;;;;;;11.33;7.60;;;22.80;47.90;;;;;;1858974;77;21134;-35
2021/10/26 04:28:31;;;;;;;12.82;7.50;;;22.80;48.10;;;;;;1858879;77;21021;-35
2021/10/26 04:31:01;;;;;;;13.50;7.78;;;22.80;48.00;;;;;;1858832;77;21033;-35
2021/10/26 04:33:29;;;;;;;12.90;7.72;;;22.80;48.20;;;;;;1858696;77;21170;-35
2021/10/26 04:35:57;;;;;;;11.15;7.30;;;22.80;48.10;;;;;;1858987;77;21635;-35
2021/10/26 04:38:24;;;;;;;11.95;7.20;;;22.80;48.20;;;;;;1858854;76;21076;-35
2021/10/26 04:40:57;;;;;;;12.13;7.45;;;22.80;48.10;;;;;;1858793;77;21064;-34
2021/10/26 04:43:21;;;;;;;11.88;6.85;;;22.80;48.00;;;;;;1858230;77;21162;-35
2021/10/26 04:45:49;;;;;;;10.85;6.95;;;22.80;47.90;;;;;;1858960;77;21553;-35
2021/10/26 04:48:17;;;;;;;10.68;7.05;;;22.80;47.90;;;;;;1859017;77;21525;-35
2021/10/26 04:50:45;;;;;;;9.10;6.53;;;22.90;47.90;;;;;;1858814;77;21142;-35
2021/10/26 04:53:12;;;;;;;11.68;7.20;;;22.80;47.90;;;;;;1858809;77;21511;-35
2021/10/26 04:55:40;;;;;;;13.58;6.72;;;22.90;47.90;;;;;;1858930;76;21474;-35
2021/10/26 04:58:07;;;;;;;10.45;6.95;;;22.90;47.90;;;;;;1858835;77;21115;-35
2021/10/26 05:00:35;;;;;;;9.75;6.47;;;22.90;47.80;;;;;;1858897;77;21045;-35
2021/10/26 05:03:02;;;;;;;13.32;8.10;;;22.90;47.90;;;;;;1858981;77;21147;-35
2021/10/26 05:05:30;;;;;;;14.33;7.35;;;22.90;47.80;;;;;;1858939;77;21126;-35
2021/10/26 05:07:57;;;;;;;10.78;7.58;;;22.90;47.80;;;;;;1858859;76;21170;-35
2021/10/26 05:10:25;;;;;;;14.83;9.18;;;22.90;47.90;;;;;;1858905;76;21592;-35
2021/10/26 05:12:53;;;;;;;16.17;9.43;;;22.90;47.90;;;;;;1858916;77;21126;-34
2021/10/26 05:15:21;;;;;;;13.55;9.80;;;22.90;48.00;;;;;;1858879;77;21517;-34
2021/10/26 05:17:49;;;;;;;15.40;8.50;;;22.90;48.00;;;;;;1858942;77;21549;-33
2021/10/26 05:20:19;;;;;;;13.08;8.30;;;22.90;48.10;;;;;;1858897;77;21068;-35
2021/10/26 05:22:49;;;;;;;13.85;9.30;;;22.90;48.10;;;;;;1858915;77;21126;-35
2021/10/26 05:25:15;;;;;;;13.30;8.50;;;22.80;48.10;;;;;;1858720;77;21101;-35
2021/10/26 05:27:43;;;;;;;14.13;8.50;;;22.90;48.20;;;;;;1858935;77;21105;-34
2021/10/26 05:30:12;;;;;;;12.80;8.18;;;22.90;48.30;;;;;;1858798;77;21493;-35
2021/10/26 05:32:40;;;;;;;15.53;9.35;;;22.90;48.20;;;;;;1858967;76;21532;-35
2021/10/26 05:35:08;;;;;;;16.02;9.20;;;22.90;48.30;;;;;;1858857;76;21107;-34
2021/10/26 05:37:36;;;;;;;12.13;8.63;;;22.90;48.20;;;;;;1858739;77;21655;-35
2021/10/26 05:40:06;;;;;;;11.48;8.43;;;22.90;48.20;;;;;;1881577;76;21513;-35
2021/10/26 05:42:34;;;;;;;14.10;8.73;;;22.90;48.20;;;;;;1882483;76;21021;-34
2021/10/26 05:45:02;;;;;;;14.15;8.93;;;22.80;48.10;;;;;;1882477;76;21142;-34
2021/10/26 05:47:30;;;;;;;15.08;9.68;;;22.90;48.20;;;;;;1882600;76;21141;-34
2021/10/26 05:49:57;;;;;;;15.98;10.35;;;22.90;48.30;;;;;;1882487;76;21587;-34
2021/10/26 05:52:25;;;;;;;11.68;8.88;;;22.90;48.30;;;;;;1882351;76;21102;-34
2021/10/26 05:54:52;;;;;;;14.60;8.65;;;22.80;48.30;;;;;;1882550;76;21507;-34
2021/10/26 05:57:20;;;;;;;12.88;7.95;;;22.80;48.80;;;;;;1882556;76;21486;-34
2021/10/26 05:59:48;;;;;;;14.73;8.38;;;22.80;48.30;;;;;;1882516;76;21545;-34
2021/10/26 06:02:15;;;;;;;13.80;8.33;;;22.80;48.30;;;;;;1882170;76;21521;-35
2021/10/26 06:04:43;;;;;;;13.80;8.13;;;22.80;48.30;;;;;;1882078;76;21584;-35
2021/10/26 06:07:10;;;;;;;13.68;8.60;;;22.90;48.30;;;;;;1881945;76;21532;-35
2021/10/26 06:09:38;;;;;;;21.02;9.35;;;22.90;48.20;;;;;;1882391;76;21144;-35
2021/10/26 06:12:10;;;;;;;12.68;8.73;;;22.90;48.20;;;;;;1877330;76;21165;-35
2021/10/26 06:14:36;;;;;;;16.82;11.57;;;22.90;48.20;;;;;;1841056;78;21557;-35
2021/10/26 06:17:04;;;;;;;15.70;10.80;;;22.90;48.20;;;;;;1840595;78;21616;-35
2021/10/26 06:19:32;;;;;;;17.02;11.12;;;22.90;48.20;;;;;;1841532;78;21057;-35
2021/10/26 06:22:00;;;;;;;15.60;10.15;;;22.90;48.30;;;;;;1841624;78;21528;-34
2021/10/26 06:24:27;;;;;;;18.07;10.10;;;22.90;48.40;;;;;;1841584;78;21052;-34
2021/10/26 06:26:55;;;;;;;18.15;10.20;;;22.80;48.40;;;;;;1841650;78;21474;-34
2021/10/26 06:29:22;;;;;;;13.88;9.53;;;22.80;48.40;;;;;;1841659;78;21595;-35
2021/10/26 06:31:50;;;;;;;12.95;8.85;;;22.80;48.40;;;;;;1841435;78;21122;-35
2021/10/26 06:34:17;;;;;;;11.50;8.70;;;22.80;48.40;;;;;;1841495;78;21045;-35
2021/10/26 06:36:45;;;;;;;12.33;8.90;;;22.80;48.40;;;;;;1841515;78;21613;-34
2021/10/26 06:39:12;;;;;;;11.00;7.55;;;22.80;48.40;;;;;;1845032;77;21099;-34
2021/10/26 06:41:41;;;;;;;13.28;8.90;;;22.80;48.40;;;;;;1850328;77;21129;-34
2021/10/26 06:44:09;;;;;;;14.45;9.38;;;22.80;48.40;;;;;;1850382;77;21625;-35
2021/10/26 06:46:36;;;;;;;11.10;8.60;;;22.80;48.30;;;;;;1850462;77;21533;-35
2021/10/26 06:49:04;;;;;;;12.65;8.48;;;22.80;48.30;;;;;;1850415;77;21075;-35
2021/10/26 06:51:31;;;;;;;12.18;8.00;;;22.80;48.30;;;;;;1850343;77;21079;-34
2021/10/26 06:54:01;;;;;;;13.98;8.83;;;22.80;48.30;;;;;;1850512;77;21606;-35
2021/10/26 06:56:29;;;;;;;12.63;8.85;;;22.80;48.20;;;;;;1850517;77;21091;-35
2021/10/26 06:58:57;;;;;;;11.53;8.80;;;22.80;48.20;;;;;;1850447;77;21540;-35
2021/10/26 07:01:24;;;;;;;18.23;10.68;;;22.80;48.20;;;;;;1850402;77;21536;-34
2021/10/26 07:03:52;;;;;;;16.12;10.40;;;22.80;48.20;;;;;;1850346;77;21128;-34
2021/10/26 07:06:19;;;;;;;16.00;10.93;;;22.80;48.20;;;;;;1850324;77;21540;-34
2021/10/26 07:08:47;;;;;;;16.00;10.15;;;22.80;48.20;;;;;;1850384;77;21048;-34
2021/10/26 07:11:14;;;;;;;13.75;10.08;;;22.80;48.30;;;;;;1850442;77;21572;-35
2021/10/26 07:13:42;;;;;;;19.42;10.03;;;22.80;48.30;;;;;;1850375;77;21072;-35
2021/10/26 07:16:09;;;;;;;12.63;9.03;;;22.80;48.30;;;;;;1850447;77;21239;-35
2021/10/26 07:18:37;;;;;;;12.05;8.73;;;22.80;48.30;;;;;;1850384;77;21548;-35
2021/10/26 07:21:04;;;;;;;15.10;9.88;;;22.80;48.20;;;;;;1850528;77;21517;-35
2021/10/26 07:23:34;;;;;;;11.90;9.23;;;22.80;48.20;;;;;;1850423;77;21047;-34
2021/10/26 07:26:01;;;;;;;13.83;9.10;;;22.80;48.10;;;;;;1850524;77;21087;-35
2021/10/26 07:28:29;;;;;;;13.83;9.30;;;22.80;48.20;;;;;;1850313;77;21189;-34
2021/10/26 07:30:56;;;;;;;14.95;9.48;;;22.80;48.20;;;;;;1850488;77;21533;-34
2021/10/26 07:33:31;;;;;;;14.18;9.35;;;22.80;48.20;;;;;;1850352;77;21651;-34
2021/10/26 07:35:57;;;;;;;17.35;9.48;;;22.80;48.10;;;;;;1849611;77;21573;-35
2021/10/26 07:38:38;;;;;;;16.42;8.48;;;22.80;48.20;;;;;;1850384;77;21126;-34
2021/10/26 07:40:56;;;;;;;14.98;8.88;;;22.80;48.10;;;;;;1846374;77;21514;-35
2021/10/26 07:43:24;;;;;;;15.18;9.03;;;22.80;48.10;;;;;;1850583;77;21489;-35
2021/10/26 07:45:51;;;;;;;16.30;9.08;;;22.80;48.00;;;;;;1850312;77;21134;-34
2021/10/26 07:48:19;;;;;;;15.15;8.88;;;22.80;48.00;;;;;;1850461;77;21533;-34
2021/10/26 07:50:47;;;;;;;13.90;10.63;;;22.90;48.00;;;;;;1849677;77;22209;-35
2021/10/26 07:53:16;;;;;;;17.65;10.30;;;22.90;47.80;;;;;;1850511;77;21072;-35
2021/10/26 07:55:46;;;;;;;15.23;9.08;;;22.80;47.70;;;;;;1850478;77;21071;-35
2021/10/26 07:58:13;;;;;;;15.98;9.58;;;22.80;47.70;;;;;;1850310;77;21076;-35
2021/10/26 08:00:40;;;;;;;12.60;8.90;;;22.80;47.80;;;;;;1850527;77;21134;-34
2021/10/26 08:03:08;;;;;;;16.05;9.25;;;22.80;47.90;;;;;;1850639;77;21819;-35
2021/10/26 08:05:36;;;;;;;17.75;9.33;;;22.80;47.90;;;;;;1850495;77;21527;-36
2021/10/26 08:08:04;;;;;;;11.88;8.15;;;22.80;47.80;;;;;;1850503;77;21138;-37
2021/10/26 08:10:32;;;;;;;12.10;8.80;;;22.80;48.40;;;;;;1850428;77;21157;-36
2021/10/26 08:12:59;;;;;;;12.82;8.60;;;22.80;47.80;;;;;;1850584;77;21469;-36
2021/10/26 08:15:27;;;;;;;15.30;8.85;;;22.80;48.00;;;;;;1850529;77;21126;-37
2021/10/26 08:17:56;;;;;;;12.80;9.00;;;22.80;48.00;;;;;;1850526;77;21075;-37
2021/10/26 08:20:24;;;;;;;15.75;8.68;;;22.80;48.10;;;;;;1850532;77;21134;-36
2021/10/26 08:22:52;;;;;;;14.33;7.85;;;22.80;48.10;;;;;;1850486;77;21126;-36
2021/10/26 08:25:32;;;;;;;14.85;10.03;;;22.80;48.00;;;;;;1850481;77;21074;-36
2021/10/26 08:27:59;;;;;;;14.10;10.28;;;22.80;47.90;;;;;;1850012;77;21056;-36
2021/10/26 08:35:49;;;;;;;14.38;8.28;;;22.80;48.10;;;;;;1850543;77;21171;-35
2021/10/26 08:38:14;;;;;;;13.62;8.68;;;22.70;48.20;;;;;;1849241;77;21118;-35
2021/10/26 08:40:48;;;;;;;13.70;8.15;;;22.70;48.20;;;;;;1844888;77;21526;-36
2021/10/26 08:43:21;;;;;;;13.43;8.03;;;22.80;48.20;;;;;;1841670;78;21049;-35
2021/10/26 08:45:51;;;;;;;12.63;8.63;;;22.80;48.20;;;;;;1841591;78;21552;-36
2021/10/26 08:48:26;;;;;;;12.98;8.48;;;22.80;48.10;;;;;;1841774;78;21100;-36
2021/10/26 08:50:56;;;;;;;13.38;8.40;;;22.80;48.10;;;;;;1841639;78;21576;-35
2021/10/26 08:53:26;;;;;;;14.73;7.23;;;22.80;48.10;;;;;;1841755;78;21080;-35
2021/10/26 08:55:58;;;;;;;14.83;8.90;;;22.80;48.20;;;;;;1841703;78;21072;-37
2021/10/26 08:58:29;;;;;;;12.47;8.35;;;22.80;48.20;;;;;;1841446;77;21104;-36
2021/10/26 09:01:02;;;;;;;12.13;7.37;;;22.80;48.20;;;;;;1841569;78;21056;-37
2021/10/26 09:03:32;;;;;;;15.98;8.28;;;22.80;48.20;;;;;;1840414;78;21151;-36
2021/10/26 09:05:59;;;;;;;12.63;8.43;;;22.80;48.00;;;;;;1841533;78;21144;-36
2021/10/26 09:08:27;;;;;;;11.78;8.38;;;22.80;48.00;;;;;;1841646;78;21064;-36
2021/10/26 09:11:04;;;;;;;14.40;9.20;;;22.90;48.00;;;;;;1841617;78;21575;-37
2021/10/26 09:19:14;;;;;;;14.43;10.05;;;22.80;48.00;;;;;;1841617;78;21109;-36
2021/10/26 09:21:42;;;;;;;15.48;9.43;;;22.80;48.20;;;;;;1841240;78;21524;-36
2021/10/26 09:24:13;;;;;;;11.85;8.38;;;22.80;48.10;;;;;;1841476;78;21154;-35
2021/10/26 09:26:52;;;;;;;11.88;8.90;;;22.80;48.20;;;;;;1841689;78;21088;-37
2021/10/26 09:29:38;;;;;;;11.30;8.53;;;22.80;48.20;;;;;;1841582;78;21021;-37
2021/10/26 09:32:18;;;;;;;11.30;8.83;;;22.80;48.30;;;;;;1841513;78;21065;-36
2021/10/26 09:34:56;;;;;;;12.20;8.10;;;22.80;48.40;;;;;;1841636;78;21136;-35
2021/10/26 09:37:28;;;;;;;15.83;8.33;;;22.80;48.50;;;;;;1841837;78;21068;-36
2021/10/26 09:39:57;;;;;;;12.45;7.60;;;22.80;48.50;;;;;;1841522;77;21088;-37
2021/10/26 09:42:28;;;;;;;14.60;8.48;;;22.80;48.50;;;;;;1847855;78;21600;-37
2021/10/26 09:45:02;;;;;;;10.60;6.92;;;22.80;48.40;;;;;;1847966;78;21092;-36
2021/10/26 09:47:27;;;;;;;11.45;8.00;;;22.90;48.50;;;;;;1846658;78;21105;-37
2021/10/26 09:49:59;;;;;;;13.58;7.60;;;22.90;48.40;;;;;;1847805;78;21139;-37
2021/10/26 09:52:31;;;;;;;13.18;7.83;;;22.90;48.40;;;;;;1847456;78;21083;-36
2021/10/26 09:55:24;;;;;;;12.45;8.18;;;22.90;48.50;;;;;;1847828;78;21601;-37
2021/10/26 09:57:38;;;;;;;16.37;8.55;;;22.90;48.50;;;;;;1840421;77;21109;-36
2021/10/26 10:00:07;;;;;;;13.25;7.75;;;22.90;48.50;;;;;;1847754;78;21052;-35
2021/10/26 10:02:35;;;;;;;11.68;7.28;;;22.90;48.50;;;;;;1847856;78;21521;-37
2021/10/26 10:05:08;;;;;;;14.65;8.08;;;22.90;48.50;;;;;;1847824;78;21056;-37
2021/10/26 10:07:37;;;;;;;13.93;7.75;;;22.90;48.40;;;;;;1884692;76;21430;-36
2021/10/26 10:10:09;;;;;;;10.70;7.37;;;22.90;48.50;;;;;;1891429;76;21239;-36
2021/10/26 10:12:37;;;;;;;11.15;6.92;;;22.90;48.60;;;;;;1891897;76;21071;-37
2021/10/26 10:15:06;;;;;;;15.80;7.80;;;22.90;48.50;;;;;;1892051;76;21048;-36
2021/10/26 10:17:35;;;;;;;16.82;7.40;;;22.90;48.90;;;;;;1891580;76;21063;-37
2021/10/26 10:20:08;;;;;;;15.75;7.25;;;22.90;48.30;;;;;;1891933;76;21044;-36
2021/10/26 10:22:36;;;;;;;14.87;7.25;;;22.90;48.40;;;;;;1891987;76;21093;-36
2021/10/26 10:25:05;;;;;;;10.63;6.55;;;22.90;48.40;;;;;;1891942;76;21067;-37
2021/10/26 10:27:38;;;;;;;13.15;6.92;;;22.90;48.50;;;;;;1891974;76;21040;-36
2021/10/26 10:30:08;;;;;;;10.90;6.72;;;23.00;48.60;;;;;;1892203;76;21004;-37
2021/10/26 10:32:35;;;;;;;12.15;7.00;;;23.00;48.60;;;;;;1891797;76;21174;-36
2021/10/26 10:35:07;;;;;;;12.93;5.85;;;23.00;48.50;;;;;;1891957;76;21117;-36
2021/10/26 10:37:34;;;;;;;10.68;6.50;;;23.00;48.50;;;;;;1891551;76;21044;-35
2021/10/26 10:40:03;;;;;;;12.90;6.30;;;23.00;48.50;;;;;;1891921;76;21551;-35
2021/10/26 10:42:31;;;;;;;15.75;7.12;;;23.00;48.40;;;;;;1886295;76;21085;-36
2021/10/26 10:45:00;;;;;;;13.40;6.85;;;23.00;48.40;;;;;;1886172;76;21109;-36
2021/10/26 10:47:42;;;;;;;11.22;6.65;;;23.00;48.20;;;;;;1886091;76;21048;-36
2021/10/26 10:50:28;;;;;;;11.80;6.83;;;23.00;48.20;;;;;;1886046;76;21490;-37
2021/10/26 10:53:14;;;;;;;10.10;5.80;;;23.00;48.20;;;;;;1886134;76;21565;-37
2021/10/26 10:55:52;;;;;;;12.75;5.97;;;23.00;48.40;;;;;;1886156;76;21071;-36
2021/10/26 10:58:31;;;;;;;11.22;6.40;;;22.90;48.40;;;;;;1886244;76;21670;-37
2021/10/26 11:01:22;;;;;;;10.82;6.20;;;22.90;48.50;;;;;;1884241;76;21068;-36
2021/10/26 11:03:50;;;;;;;9.83;5.92;;;23.00;48.50;;;;;;1886056;76;21614;-38
2021/10/26 11:06:45;;;;;;;19.73;6.80;;;22.90;48.40;;;;;;1886219;76;21063;-37
2021/10/26 11:09:41;;;;;;;16.12;6.25;;;23.00;48.50;;;;;;1850536;77;21065;-37
2021/10/26 11:12:12;;;;;;;13.00;6.33;;;22.90;48.60;;;;;;1849323;77;21128;-37
2021/10/26 11:14:47;;;;;;;10.45;6.20;;;22.90;48.60;;;;;;1850566;77;21077;-36
2021/10/26 11:17:39;;;;;;;13.72;6.37;;;22.90;48.50;;;;;;1849604;77;21065;-36
2021/10/26 11:20:29;;;;;;;10.93;6.28;;;22.90;48.30;;;;;;1850441;77;21096;-37
2021/10/26 11:23:04;;;;;;;8.17;6.00;;;22.90;48.40;;;;;;1850790;77;21214;-36
2021/10/26 11:25:37;;;;;;;10.55;6.08;;;22.90;48.50;;;;;;1850714;77;21505;-36
2021/10/26 11:28:17;;;;;;;12.40;6.97;;;22.90;48.40;;;;;;1850587;77;21092;-36
2021/10/26 11:30:48;;;;;;;14.60;7.50;;;23.00;48.40;;;;;;1850613;77;21153;-37
2021/10/26 11:33:19;;;;;;;14.10;8.03;;;23.00;48.90;;;;;;1850792;77;21093;-37
2021/10/26 11:36:00;;;;;;;12.05;8.35;;;23.00;48.20;;;;;;1850889;77;21084;-36
2021/10/26 11:38:26;;;;;;;12.82;8.23;;;23.00;48.20;;;;;;1849936;77;21084;-37
2021/10/26 11:41:01;;;;;;;15.70;8.03;;;23.00;48.10;;;;;;1848301;77;21230;-37
2021/10/26 11:43:30;;;;;;;14.65;7.87;;;23.00;48.10;;;;;;1860494;76;21072;-37
2021/10/26 11:46:00;;;;;;;14.23;7.47;;;23.00;48.10;;;;;;1879924;76;21431;-37
2021/10/26 11:48:48;;;;;;;14.58;7.03;;;23.00;48.20;;;;;;1879378;76;21529;-35
2021/10/26 11:51:38;;;;;;;13.03;6.83;;;23.10;48.20;;;;;;1879783;76;21150;-37
2021/10/26 11:54:09;;;;;;;10.48;6.72;;;23.10;48.20;;;;;;1879709;76;21126;-36
2021/10/26 11:56:53;;;;;;;10.55;7.12;;;23.10;48.30;;;;;;1879800;76;21098;-36
2021/10/26 11:59:29;;;;;;;10.90;7.20;;;23.10;48.20;;;;;;1879797;76;21083;-36
2021/10/26 12:01:59;;;;;;;8.18;6.42;;;23.00;48.40;;;;;;1862884;76;21505;-37
2021/10/26 12:04:40;;;;;;;10.13;6.17;;;23.00;48.20;;;;;;1841367;78;21029;-36
2021/10/26 12:07:13;;;;;;;10.63;6.78;;;23.10;48.20;;;;;;1840159;77;21092;-36
2021/10/26 12:09:50;;;;;;;14.98;7.50;;;23.10;48.20;;;;;;1840383;78;21100;-36
2021/10/26 12:12:23;;;;;;;11.18;6.60;;;23.10;48.20;;;;;;1840954;78;21537;-36
2021/10/26 12:14:53;;;;;;;11.03;6.85;;;23.10;48.00;;;;;;1841432;78;21061;-36
2021/10/26 12:17:28;;;;;;;10.88;6.20;;;23.10;48.00;;;;;;1840492;78;21052;-35
2021/10/26 12:20:06;;;;;;;14.03;7.08;;;23.20;47.90;;;;;;1841447;78;21553;-37
2021/10/26 12:22:36;;;;;;;10.85;7.37;;;23.20;47.90;;;;;;1841669;78;21169;-41
2021/10/26 12:25:20;;;;;;;12.88;7.50;;;23.20;47.80;;;;;;1841675;78;21153;-37
2021/10/26 12:28:03;;;;;;;12.07;6.85;;;23.20;47.90;;;;;;1841214;78;21104;-37
2021/10/26 12:30:34;;;;;;;10.98;7.67;;;23.10;47.90;;;;;;1841756;78;21470;-36
2021/10/26 12:33:04;;;;;;;11.35;8.03;;;23.10;47.90;;;;;;1841750;78;21118;-35
2021/10/26 12:35:33;;;;;;;15.58;9.48;;;23.10;47.90;;;;;;1841733;78;21510;-34
2021/10/26 12:38:27;;;;;;;15.85;8.35;;;23.10;47.90;;;;;;1841588;78;21135;-34
2021/10/26 12:41:14;;;;;;;15.40;8.63;;;23.10;48.60;;;;;;1841653;78;21620;-35
2021/10/26 12:43:45;;;;;;;14.45;7.78;;;23.10;48.20;;;;;;1841643;78;21079;-34
2021/10/26 12:46:23;;;;;;;13.72;8.18;;;23.10;48.40;;;;;;1841767;78;21056;-35
2021/10/26 12:48:52;;;;;;;9.90;6.83;;;23.10;48.30;;;;;;1841646;78;21118;-33
2021/10/26 12:51:22;;;;;;;10.00;6.92;;;23.10;48.20;;;;;;1841715;78;21497;-35
2021/10/26 12:53:53;;;;;;;10.03;7.20;;;23.10;48.10;;;;;;1841812;78;21094;-34
2021/10/26 12:56:23;;;;;;;12.88;7.85;;;23.20;48.20;;;;;;1841619;78;21072;-33
2021/10/26 12:58:56;;;;;;;16.93;8.33;;;23.20;48.20;;;;;;1841501;78;21095;-34
2021/10/26 13:01:30;;;;;;;13.28;7.87;;;23.20;48.20;;;;;;1841630;78;21061;-33
2021/10/26 13:04:06;;;;;;;9.60;6.80;;;23.20;48.20;;;;;;1841675;77;21033;-34